Aeroporto :
LOGIN :

Iscrizione | Disclaimer

   EN    FR    IT 

 










Sommario :    VFR   VFR Marginale   IFR   IFR Intensivo   IFR Molto Intensivo
Visibilità : 
Base nubi : 
>= 8 km
>= 3000ft
5 / 8 km
1000 / 3000 ft
1500m / 5 km
500 / 1000 ft
800 / 1500m
200 / 500 ft
< 800m
< 200 ft
Simboli :   Temporali  Nebbia  Neve Forte  Precipitazioni Forti  Vento > 20 kt
SIGMETs :   Varie  Temporali  Ghiacco  Turbolenza  Onda orograficha  Ceneri Vulcaniche






- Altitudine del aeroporto : 1090 ft
- Codice IATA : CFE


LFLC - Clermont-Ferrand Auvergne

ULTIMO METAR :
  • 261600Z AUTO 03007KT 360V060 9999 3100 FEW046 SCT054 BKN066 19/13 Q1018 NOSIG

METARs OBSOLETI :
  • 261530Z AUTO 02007KT 350V050 9999 2600 SCT048 BKN060 OVC076 19/13 Q1018 NOSIG
  • 261500Z AUTO 02007KT 9999 2800 BKN056/// BKN066/// OVC080/// ///TCU 19/13 Q1018 BECMG BKN045
  • 261430Z AUTO 02006KT 350V050 9999 3800 FEW038/// OVC056/// ///CB 20/14 Q1018 BECMG BKN045
  • 261400Z AUTO 02005KT 340V050 9999 FEW037 BKN048 BKN054 20/14 Q1018 TEMPO SHRA SCT040TCU
  • 261330Z AUTO 36005KT 320V020 9999 BKN052 BKN072 OVC084 20/14 Q1018 TEMPO SHRA SCT040TCU
  • 261300Z AUTO 02005KT 350V060 9999 BKN052 BKN064 BKN078 20/13 Q1018 TEMPO SHRA SCT040TCU
  • 261230Z AUTO 01005KT 340V040 9999 BKN054 BKN068 BKN140 20/13 Q1018 TEMPO SHRA SCT040TCU
  • 261200Z AUTO 01004KT 340V050 CAVOK 19/13 Q1018 TEMPO SHRA SCT040TCU
  • 261130Z AUTO VRB02KT 9999 FEW056 BKN076 19/13 Q1018 TEMPO SHRA SCT040TCU

TAF TAF LFLC
Valido dal 26 a 12 ore il 27 a 12 ore UTC


261100Z 2612/2712 29006KT 9999 BKN045
PROB30
TEMPO 2612/2615 SHRA SCT040TCU
PROB30
TEMPO 2703/2709 BKN018
ATIS : +33 4 73 62 74 38



MetMap, La meteo Aeronautica in un colpo d'occhio ! - Copyright ORBIFLY Dicembre 2007 - Disclaimer

ORBIFLY MET'MAP TEAM :

Programmazione e sviluppo : Alexandra Zaïnal
Concezione : Baudouin d'Aumeries
Supporto tecnico e logistico : Manuel Goepfert
Aiuto : Marc-Olivier Méhu
Aiuto per la traduzione : Arnaldo La Scala




FONTI E CREDITI :

   NOAA